createdAt,value
2018-04-26T00:01:47.367Z,12.33
2018-04-26T00:04:14.517Z,12.30
2018-04-26T00:06:43.146Z,11.90
2018-04-26T00:09:10.149Z,12.87
2018-04-26T00:11:38.016Z,12.77
2018-04-26T00:14:05.062Z,12.60
2018-04-26T00:16:32.117Z,11.63
2018-04-26T00:18:59.979Z,12.83
2018-04-26T00:21:27.033Z,12.73
2018-04-26T00:23:54.022Z,12.77
2018-04-26T00:26:21.642Z,12.80
2018-04-26T00:28:48.686Z,13.70
2018-04-26T00:31:15.740Z,13.07
2018-04-26T00:33:43.095Z,12.07
2018-04-26T00:36:10.137Z,13.27
2018-04-26T00:38:37.186Z,13.50
2018-04-26T00:41:04.178Z,13.53
2018-04-26T00:43:31.181Z,12.77
2018-04-26T00:45:58.234Z,13.30
2018-04-26T00:48:25.281Z,12.73
2018-04-26T00:50:52.327Z,12.63
2018-04-26T00:53:19.382Z,12.80
2018-04-26T00:55:46.425Z,12.63
2018-04-26T00:58:13.475Z,12.87
2018-04-26T01:00:41.341Z,14.30
2018-04-26T01:03:08.388Z,14.03
2018-04-26T01:05:35.443Z,13.57
2018-04-26T01:08:02.487Z,14.97
2018-04-26T01:10:29.536Z,13.47
2018-04-26T01:12:56.589Z,13.33
2018-04-26T01:15:23.578Z,12.77
2018-04-26T01:17:50.584Z,14.47
2018-04-26T01:20:17.633Z,14.47
2018-04-26T01:22:44.680Z,14.40
2018-04-26T01:25:11.749Z,14.20
2018-04-26T01:27:38.884Z,13.37
2018-04-26T01:30:05.928Z,13.47
2018-04-26T01:32:32.972Z,13.90
2018-04-26T01:35:00.029Z,13.20
2018-04-26T01:37:32.907Z,13.83
2018-04-26T01:39:59.955Z,12.87
2018-04-26T01:42:27.012Z,12.67
2018-04-26T01:44:54.773Z,13.57
2018-04-26T01:47:21.821Z,12.80
2018-04-26T01:49:48.868Z,13.00
2018-04-26T01:52:16.734Z,13.17
2018-04-26T01:54:43.784Z,13.23
2018-04-26T01:57:10.836Z,12.30
2018-04-26T01:59:38.295Z,12.90
2018-04-26T02:02:05.339Z,13.33
2018-04-26T02:04:32.390Z,12.70
2018-04-26T02:06:59.441Z,12.47
2018-04-26T02:09:26.485Z,13.53
2018-04-26T02:11:53.537Z,13.97
2018-04-26T02:14:20.586Z,13.53
2018-04-26T02:16:47.630Z,13.60
2018-04-26T02:19:14.678Z,14.13
2018-04-26T02:21:43.128Z,13.87
2018-04-26T02:24:10.112Z,13.77
2018-04-26T02:26:37.157Z,13.70
2018-04-26T02:29:04.203Z,13.33
2018-04-26T02:31:31.262Z,14.60
2018-04-26T02:33:58.302Z,14.13
2018-04-26T02:36:25.351Z,14.73
2018-04-26T02:38:52.604Z,14.67
2018-04-26T02:41:20.266Z,13.87
2018-04-26T02:43:47.319Z,13.90
2018-04-26T02:46:15.183Z,14.87
2018-04-26T02:48:44.279Z,14.47
2018-04-26T02:51:11.330Z,14.77
2018-04-26T02:53:38.383Z,15.50
2018-04-26T02:56:05.425Z,15.20
2018-04-26T02:58:32.472Z,14.30
2018-04-26T03:00:59.527Z,12.97
2018-04-26T03:03:26.570Z,14.70
2018-04-26T03:05:53.617Z,15.00
2018-04-26T03:08:21.355Z,15.13
2018-04-26T03:10:48.329Z,15.73
2018-04-26T03:13:15.379Z,14.93
2018-04-26T03:15:42.439Z,16.43
2018-04-26T03:18:09.476Z,16.47
2018-04-26T03:20:36.524Z,17.80
2018-04-26T03:23:03.580Z,18.10
2018-04-26T03:25:31.344Z,15.67
2018-04-26T03:27:58.387Z,16.93
2018-04-26T03:30:25.435Z,15.13
2018-04-26T03:32:52.996Z,15.87
2018-04-26T03:35:20.046Z,15.90
2018-04-26T03:37:47.098Z,15.27
2018-04-26T03:40:14.250Z,16.30
2018-04-26T03:42:41.402Z,15.60
2018-04-26T03:45:08.394Z,15.43
2018-04-26T03:47:35.493Z,15.57
2018-04-26T03:50:02.547Z,15.77
2018-04-26T03:52:29.592Z,16.00
2018-04-26T03:54:56.848Z,13.60
2018-04-26T03:57:23.893Z,14.27
2018-04-26T03:59:57.392Z,14.80
2018-04-26T04:02:30.590Z,13.60
2018-04-26T04:05:03.471Z,14.83
2018-04-26T04:07:30.520Z,14.47
2018-04-26T04:09:57.467Z,14.47
2018-04-26T04:12:24.517Z,14.83
2018-04-26T04:14:52.385Z,14.57
2018-04-26T04:17:19.451Z,14.20
2018-04-26T04:19:46.485Z,14.40
2018-04-26T04:22:13.531Z,14.93
2018-04-26T04:24:40.682Z,15.07
2018-04-26T04:27:07.951Z,14.23
2018-04-26T04:29:34.878Z,15.33
2018-04-26T04:32:01.938Z,14.43
2018-04-26T04:34:30.102Z,13.53
2018-04-26T04:36:57.155Z,13.37
2018-04-26T04:39:25.324Z,14.87
2018-04-26T04:41:52.320Z,14.23
2018-04-26T04:44:19.224Z,13.73
2018-04-26T04:46:46.276Z,14.30
2018-04-26T04:49:13.314Z,14.87
2018-04-26T04:51:40.370Z,14.37
2018-04-26T04:54:07.410Z,14.13
2018-04-26T04:56:34.460Z,14.10
2018-04-26T04:59:03.761Z,13.50
2018-04-26T05:01:32.888Z,13.77
2018-04-26T05:03:59.905Z,13.33
2018-04-26T05:06:26.963Z,13.73
2018-04-26T05:08:54.004Z,13.70
2018-04-26T05:11:21.568Z,14.27
2018-04-26T05:13:49.036Z,14.10
2018-04-26T05:18:49.674Z,12.87
2018-04-26T05:21:16.724Z,13.37
2018-04-26T05:23:43.775Z,12.73
2018-04-26T05:26:11.125Z,13.70
2018-04-26T05:28:38.175Z,13.33
2018-04-26T05:31:05.228Z,13.80
2018-04-26T05:33:32.686Z,13.60
2018-04-26T05:35:59.675Z,14.07
2018-04-26T05:38:26.681Z,14.53
2018-04-26T05:40:55.414Z,12.80
2018-04-26T05:43:22.410Z,12.80
2018-04-26T05:45:49.460Z,13.23
2018-04-26T05:48:17.578Z,13.40
2018-04-26T05:50:44.587Z,12.27
2018-04-26T05:53:11.632Z,12.33
2018-04-26T05:55:40.363Z,12.73
2018-04-26T05:58:07.518Z,13.67
2018-04-26T06:00:34.516Z,13.20
2018-04-26T06:03:01.571Z,13.37
2018-04-26T06:05:28.618Z,13.17
2018-04-26T06:07:55.662Z,13.77
2018-04-26T06:10:22.717Z,13.40
2018-04-26T06:12:50.179Z,13.57
2018-04-26T06:15:17.217Z,12.93
2018-04-26T06:17:44.573Z,12.50
2018-04-26T06:20:11.626Z,12.20
2018-04-26T06:22:38.698Z,12.80
2018-04-26T06:25:05.951Z,12.10
2018-04-26T06:27:33.085Z,12.13
2018-04-26T06:30:00.257Z,11.80
2018-04-26T06:32:28.044Z,11.90
2018-04-26T06:34:55.041Z,12.17
2018-04-26T06:37:22.090Z,11.87
2018-04-26T06:39:49.143Z,11.73
2018-04-26T06:42:16.230Z,11.80
2018-04-26T06:44:43.233Z,10.63
2018-04-26T06:47:10.180Z,11.80
2018-04-26T06:49:37.231Z,12.37
2018-04-26T06:52:05.666Z,11.53
2018-04-26T06:54:32.593Z,11.50
2018-04-26T06:56:59.849Z,11.27
2018-04-26T06:59:26.857Z,12.47
2018-04-26T07:01:54.009Z,11.87
2018-04-26T07:04:21.059Z,11.07
2018-04-26T07:06:49.438Z,11.20
2018-04-26T07:09:16.492Z,11.43
2018-04-26T07:11:43.540Z,10.40
2018-04-26T07:14:10.794Z,9.90
2018-04-26T07:16:37.838Z,9.20
2018-04-26T07:19:04.887Z,9.80
2018-04-26T07:21:32.035Z,9.23
2018-04-26T07:23:59.902Z,8.40
2018-04-26T07:26:26.904Z,9.67
2018-04-26T07:28:54.931Z,9.47
2018-04-26T07:31:21.968Z,10.10
2018-04-26T07:33:48.922Z,8.93
2018-04-26T07:36:16.833Z,9.17
2018-04-26T07:38:43.838Z,10.27
2018-04-26T07:41:10.880Z,9.80
2018-04-26T07:43:37.930Z,8.93
2018-04-26T07:46:04.982Z,9.20
2018-04-26T07:48:32.135Z,9.27
2018-04-26T07:50:59.178Z,9.03
2018-04-26T07:53:26.129Z,8.83
2018-04-26T07:55:53.171Z,8.80
2018-04-26T07:58:20.220Z,8.70
2018-04-26T08:00:47.277Z,8.33
2018-04-26T08:03:14.318Z,7.90
2018-04-26T08:05:41.367Z,8.00
2018-04-26T08:08:08.420Z,7.17
2018-04-26T08:10:35.463Z,8.23
2018-04-26T08:13:02.513Z,9.57
2018-04-26T08:15:29.566Z,8.80
2018-04-26T08:17:56.718Z,8.17
2018-04-26T08:20:23.764Z,8.80
2018-04-26T08:22:50.810Z,8.53
2018-04-26T08:25:17.865Z,8.70
2018-04-26T08:27:44.908Z,8.57
2018-04-26T08:30:11.955Z,7.73
2018-04-26T08:32:38.948Z,8.73
2018-04-26T08:35:05.949Z,7.83
2018-04-26T08:37:32.896Z,7.13
2018-04-26T08:39:59.945Z,8.03
2018-04-26T08:42:26.999Z,7.03
2018-04-26T08:44:53.938Z,8.13
2018-04-26T08:47:20.997Z,7.40
2018-04-26T08:49:48.855Z,7.22
2018-04-26T08:52:15.983Z,8.13
2018-04-26T08:54:43.157Z,8.20
2018-04-26T08:57:10.831Z,6.87
2018-04-26T08:59:37.879Z,8.43
2018-04-26T09:02:06.175Z,8.60
2018-04-26T09:04:33.508Z,8.50
2018-04-26T09:07:02.087Z,9.32
2018-04-26T09:09:29.038Z,11.65
2018-04-26T09:11:56.193Z,10.30
2018-04-26T09:14:23.232Z,15.15
2018-04-26T09:16:50.217Z,14.52
2018-04-26T09:19:17.228Z,15.35
2018-04-26T09:21:44.279Z,16.42
2018-04-26T09:24:11.330Z,13.30
2018-04-26T09:26:38.374Z,10.88
2018-04-26T09:29:05.423Z,10.20
2018-04-26T09:31:32.572Z,9.27
2018-04-26T09:33:59.519Z,8.73
2018-04-26T09:36:26.568Z,8.60
2018-04-26T09:38:53.620Z,8.13
2018-04-26T09:41:20.665Z,8.38
2018-04-26T09:43:47.722Z,6.47
2018-04-26T09:46:15.786Z,7.55
2018-04-26T09:48:42.851Z,7.55
2018-04-26T09:51:09.884Z,7.87
2018-04-26T09:53:36.931Z,7.47
2018-04-26T09:56:03.985Z,7.57
2018-04-26T09:58:31.042Z,7.43
2018-04-26T10:00:58.181Z,8.55
2018-04-26T10:03:27.087Z,6.60
2018-04-26T10:05:58.121Z,8.32
2018-04-26T10:08:25.994Z,8.25
2018-04-26T10:10:53.036Z,8.25
2018-04-26T10:13:20.084Z,8.10
2018-04-26T10:15:47.131Z,8.05
2018-04-26T10:18:14.181Z,7.87
2018-04-26T10:20:41.223Z,8.18
2018-04-26T10:23:08.272Z,7.85
2018-04-26T10:25:35.325Z,7.78
2018-04-26T10:28:02.373Z,7.87
2018-04-26T10:30:29.837Z,8.10
2018-04-26T10:32:56.778Z,8.50
2018-04-26T10:35:23.745Z,8.50
2018-04-26T10:37:51.738Z,8.90
2018-04-26T10:40:18.701Z,8.43
2018-04-26T10:42:45.787Z,8.63
2018-04-26T10:45:12.733Z,8.10
2018-04-26T10:47:39.684Z,8.73
2018-04-26T10:50:06.728Z,8.27
2018-04-26T10:52:33.758Z,7.15
2018-04-26T10:55:00.723Z,8.75
2018-04-26T10:57:27.770Z,9.10
2018-04-26T10:59:54.921Z,7.30
2018-04-26T11:02:21.977Z,7.53
2018-04-26T11:04:49.019Z,8.18
2018-04-26T11:07:16.066Z,6.95
2018-04-26T11:09:43.122Z,7.25
2018-04-26T11:12:11.502Z,6.07
2018-04-26T11:14:38.969Z,6.50
2018-04-26T11:17:06.018Z,6.03
2018-04-26T11:19:33.052Z,6.82
2018-04-26T11:22:01.027Z,6.82
2018-04-26T11:24:28.116Z,5.97
2018-04-26T11:26:55.579Z,6.50
2018-04-26T11:29:22.755Z,5.70
2018-04-26T11:31:49.728Z,5.80
2018-04-26T11:34:18.114Z,6.15
2018-04-26T11:36:45.161Z,5.90
2018-04-26T11:39:12.207Z,5.30
2018-04-26T11:41:39.357Z,6.47
2018-04-26T11:44:06.309Z,6.55
2018-04-26T11:46:34.216Z,6.25
2018-04-26T11:49:01.159Z,6.43
2018-04-26T11:51:28.171Z,4.87
2018-04-26T11:53:55.221Z,5.72
2018-04-26T11:56:22.289Z,6.20
2018-04-26T11:58:49.311Z,6.37
2018-04-26T12:01:16.366Z,6.43
2018-04-26T12:03:43.415Z,5.95
2018-04-26T12:06:10.458Z,4.60
2018-04-26T12:08:37.518Z,7.47
2018-04-26T12:11:04.555Z,7.15
2018-04-26T12:13:32.368Z,6.78
2018-04-26T12:16:00.904Z,8.82
2018-04-26T12:18:28.040Z,8.90
2018-04-26T12:20:55.110Z,7.87
2018-04-26T12:23:22.155Z,8.35
2018-04-26T12:25:49.201Z,7.90
2018-04-26T12:28:16.261Z,6.95
2018-04-26T12:30:43.299Z,8.27
2018-04-26T12:33:10.348Z,8.35
2018-04-26T12:35:37.404Z,6.90
2018-04-26T12:38:05.264Z,6.65
2018-04-26T12:40:32.319Z,5.37
2018-04-26T12:42:59.363Z,6.35
2018-04-26T12:45:26.410Z,6.35
2018-04-26T12:47:53.462Z,7.90
2018-04-26T12:50:20.661Z,6.57
2018-04-26T12:52:48.043Z,6.12
2018-04-26T12:55:15.117Z,7.18
2018-04-26T12:57:42.578Z,6.60
2018-04-26T13:00:09.626Z,6.68
2018-04-26T13:02:36.678Z,6.78
2018-04-26T13:05:04.274Z,7.20
2018-04-26T13:07:32.306Z,6.45
2018-04-26T13:09:59.328Z,6.80
2018-04-26T13:12:26.402Z,6.62
2018-04-26T13:14:53.449Z,6.22
2018-04-26T13:17:20.555Z,6.50
2018-04-26T13:19:48.160Z,7.57
2018-04-26T13:22:15.519Z,7.20
2018-04-26T13:24:42.570Z,6.20
2018-04-26T13:27:09.632Z,7.10
2018-04-26T13:29:36.663Z,7.93
2018-04-26T13:32:03.650Z,6.62
2018-04-26T13:34:30.607Z,7.18
2018-04-26T13:36:59.625Z,7.62
2018-04-26T13:39:26.705Z,6.97
2018-04-26T13:41:53.751Z,6.93
2018-04-26T13:44:20.797Z,6.78
2018-04-26T13:46:47.851Z,7.28
2018-04-26T13:49:14.894Z,7.00
2018-04-26T13:51:42.053Z,7.60
2018-04-26T13:54:09.093Z,8.57
2018-04-26T13:56:36.347Z,7.07
2018-04-26T13:59:04.318Z,7.53
2018-04-26T14:01:31.372Z,6.50
2018-04-26T14:03:59.644Z,6.55
2018-04-26T14:06:26.691Z,6.72
2018-04-26T14:08:53.752Z,7.22
2018-04-26T14:11:20.790Z,7.55
2018-04-26T14:13:48.760Z,7.80
2018-04-26T14:16:15.814Z,7.70
2018-04-26T14:18:42.858Z,8.05
2018-04-26T14:21:09.935Z,7.90
2018-04-26T14:23:37.087Z,5.80
2018-04-26T14:26:04.138Z,7.12
2018-04-26T14:28:31.800Z,7.78
2018-04-26T14:30:58.949Z,8.00
2018-04-26T14:33:26.097Z,8.73
2018-04-26T14:35:53.151Z,9.13
2018-04-26T14:38:20.201Z,9.23
2018-04-26T14:40:47.242Z,9.25
2018-04-26T14:43:14.328Z,6.22
2018-04-26T14:45:41.359Z,8.10
2018-04-26T14:48:08.387Z,8.35
2018-04-26T14:50:35.437Z,7.97
2018-04-26T14:53:02.489Z,8.15
2018-04-26T14:55:29.536Z,8.68
2018-04-26T14:57:56.581Z,8.25
2018-04-26T15:00:24.451Z,7.37
2018-04-26T15:02:51.498Z,7.07
2018-04-26T15:05:18.603Z,7.78
2018-04-26T15:07:45.595Z,7.90
2018-04-26T15:10:12.643Z,7.80
2018-04-26T15:12:39.698Z,7.85
2018-04-26T15:15:06.741Z,8.50
2018-04-26T15:17:33.693Z,8.05
2018-04-26T15:20:00.736Z,9.82
2018-04-26T15:22:27.784Z,8.98
2018-04-26T15:24:54.837Z,8.32
2018-04-26T15:27:21.830Z,8.85
2018-04-26T15:29:48.835Z,9.43
2018-04-26T15:32:16.082Z,9.48
2018-04-26T15:34:43.137Z,9.68
2018-04-26T15:37:10.179Z,7.60
2018-04-26T15:39:38.054Z,7.70
2018-04-26T15:42:05.044Z,7.45
2018-04-26T15:44:32.045Z,7.40
2018-04-26T15:46:59.090Z,6.43
2018-04-26T15:49:26.139Z,6.25
2018-04-26T15:51:54.469Z,5.68
2018-04-26T15:54:27.507Z,5.53
2018-04-26T15:57:00.500Z,5.70
2018-04-26T15:59:33.440Z,7.45
2018-04-26T16:02:09.339Z,5.82
2018-04-26T16:04:42.938Z,5.50
2018-04-26T16:07:32.823Z,5.60
2018-04-26T16:10:06.324Z,4.72
2018-04-26T16:12:45.051Z,5.03
2018-04-26T16:15:17.969Z,4.85
2018-04-26T16:17:56.960Z,5.40
2018-04-26T16:20:37.838Z,5.20
2018-04-26T16:23:17.170Z,5.15
2018-04-26T16:25:50.159Z,4.68
2018-04-26T16:28:29.494Z,4.80
2018-04-26T16:31:08.319Z,5.05
2018-04-26T16:33:41.258Z,5.15
2018-04-26T16:36:25.968Z,5.47
2018-04-26T16:38:55.886Z,4.57
2018-04-26T16:41:22.939Z,5.00
2018-04-26T16:43:49.983Z,5.25
2018-04-26T16:46:17.137Z,4.97
2018-04-26T16:48:45.631Z,4.75
2018-04-26T16:51:12.669Z,5.57
2018-04-26T16:53:41.424Z,5.35
2018-04-26T16:56:09.731Z,5.25
2018-04-26T16:58:36.781Z,5.22
2018-04-26T17:01:04.144Z,4.82
2018-04-26T17:03:31.184Z,5.55
2018-04-26T17:05:58.237Z,5.18
2018-04-26T17:08:25.287Z,5.30
2018-04-26T17:10:52.331Z,5.70
2018-04-26T17:13:19.998Z,5.70
2018-04-26T17:15:47.052Z,5.43
2018-04-26T17:18:14.096Z,4.95
2018-04-26T17:20:41.141Z,5.15
2018-04-26T17:23:08.572Z,5.50
2018-04-26T17:25:35.651Z,4.93
2018-04-26T17:28:02.958Z,5.43
2018-04-26T17:30:29.845Z,5.50
2018-04-26T17:32:56.895Z,5.37
2018-04-26T17:35:24.302Z,6.10
2018-04-26T17:37:51.503Z,5.32
2018-04-26T17:40:19.528Z,6.18
2018-04-26T17:42:47.135Z,5.97
2018-04-26T17:45:14.901Z,5.50
2018-04-26T17:47:41.960Z,5.40
2018-04-26T17:50:09.715Z,5.70
2018-04-26T17:52:36.864Z,5.95
2018-04-26T17:55:03.920Z,6.07
2018-04-26T17:57:30.962Z,6.22
2018-04-26T17:59:58.011Z,6.30
2018-04-26T18:02:25.065Z,5.70
2018-04-26T18:04:53.894Z,5.75
2018-04-26T18:07:20.903Z,5.97
2018-04-26T18:09:48.561Z,6.30
2018-04-26T18:12:15.610Z,6.00
2018-04-26T18:14:42.663Z,6.07
2018-04-26T18:17:09.705Z,6.43
2018-04-26T18:19:36.823Z,15.20
2018-04-26T18:22:04.730Z,12.95
2018-04-26T18:24:31.776Z,9.60
2018-04-26T18:26:58.822Z,9.50
2018-04-26T18:29:26.182Z,8.02
2018-04-26T18:31:53.298Z,7.32
2018-04-26T18:34:20.487Z,6.40
2018-04-26T18:36:54.177Z,6.80
2018-04-26T18:39:21.335Z,6.93
2018-04-26T18:41:48.390Z,6.18
2018-04-26T18:44:15.436Z,7.97
2018-04-26T18:46:42.893Z,11.70
2018-04-26T18:49:09.940Z,8.43
2018-04-26T18:51:36.994Z,7.53
2018-04-26T18:54:04.610Z,6.95
2018-04-26T18:56:31.604Z,7.37
2018-04-26T18:58:58.854Z,7.53
2018-04-26T19:01:25.909Z,7.60
2018-04-26T19:03:53.460Z,7.00
2018-04-26T19:06:21.278Z,8.48
2018-04-26T19:08:48.348Z,8.10
2018-04-26T19:11:15.328Z,8.40
2018-04-26T19:13:44.335Z,8.15
2018-04-26T19:16:12.805Z,8.60
2018-04-26T19:18:40.263Z,8.10
2018-04-26T19:21:08.847Z,8.10
2018-04-26T19:23:35.893Z,9.60
2018-04-26T19:26:04.180Z,8.30
2018-04-26T19:28:33.195Z,7.07
2018-04-26T19:31:01.644Z,8.27
2018-04-26T19:33:28.797Z,7.40
2018-04-26T19:35:56.466Z,9.67
2018-04-26T19:38:27.183Z,9.70
2018-04-26T19:40:57.228Z,9.33
2018-04-26T19:43:24.569Z,8.83
2018-04-26T19:45:52.273Z,9.53
2018-04-26T19:48:19.799Z,9.43
2018-04-26T19:50:48.735Z,7.83
2018-04-26T19:53:15.738Z,7.90
2018-04-26T19:55:42.783Z,7.70
2018-04-26T19:58:10.654Z,7.37
2018-04-26T20:00:38.262Z,7.10
2018-04-26T20:03:05.572Z,7.23
2018-04-26T20:05:32.615Z,6.73
2018-04-26T20:07:59.505Z,6.17
2018-04-26T20:10:27.333Z,6.93
2018-04-26T20:12:54.381Z,6.63
2018-04-26T20:15:21.427Z,5.60
2018-04-26T20:17:48.577Z,5.80
2018-04-26T20:20:16.595Z,5.87
2018-04-26T20:22:43.593Z,5.10
2018-04-26T20:25:10.641Z,5.30
2018-04-26T20:27:37.702Z,5.33
2018-04-26T20:30:04.681Z,5.40
2018-04-26T20:32:32.550Z,5.83
2018-04-26T20:34:59.468Z,5.63
2018-04-26T20:37:26.608Z,5.60
2018-04-26T20:39:53.757Z,5.70
2018-04-26T20:42:20.801Z,5.50
2018-04-26T20:44:47.850Z,5.33
2018-04-26T20:47:14.905Z,5.20
2018-04-26T20:49:42.670Z,5.10
2018-04-26T20:52:09.712Z,5.50
2018-04-26T20:54:36.760Z,5.33
2018-04-26T20:57:03.815Z,5.43
2018-04-26T20:59:30.966Z,5.70
2018-04-26T21:01:58.010Z,6.30
2018-04-26T21:04:25.058Z,5.13
2018-04-26T21:06:52.652Z,5.27
2018-04-26T21:09:20.896Z,6.10
2018-04-26T21:11:48.047Z,6.40
2018-04-26T21:14:16.517Z,6.10
2018-04-26T21:16:43.373Z,6.53
2018-04-26T21:19:10.365Z,6.00
2018-04-26T21:21:37.368Z,6.20
2018-04-26T21:24:04.320Z,6.63
2018-04-26T21:26:31.314Z,6.70
2018-04-26T21:28:58.313Z,6.03
2018-04-26T21:31:25.357Z,5.43
2018-04-26T21:33:52.406Z,5.27
2018-04-26T21:36:20.076Z,4.60
2018-04-26T21:38:47.118Z,4.40
2018-04-26T21:41:14.166Z,4.17
2018-04-26T21:43:41.220Z,4.10
2018-04-26T21:46:08.264Z,4.40
2018-04-26T21:48:35.523Z,4.10
2018-04-26T21:51:08.299Z,3.77
2018-04-26T21:53:41.287Z,2.90
2018-04-26T21:56:14.178Z,3.77
2018-04-26T21:58:46.860Z,3.47
2018-04-26T22:01:19.587Z,3.37
2018-04-26T22:03:48.426Z,3.00
2018-04-26T22:06:15.474Z,3.57
2018-04-26T22:08:42.529Z,3.20
2018-04-26T22:11:09.572Z,2.77
2018-04-26T22:13:36.625Z,2.90
2018-04-26T22:16:03.621Z,2.87
2018-04-26T22:18:30.923Z,2.27
2018-04-26T22:20:57.914Z,2.40
2018-04-26T22:23:24.918Z,2.13
2018-04-26T22:25:51.972Z,2.77
2018-04-26T22:28:19.220Z,2.40
2018-04-26T22:30:46.473Z,2.60
2018-04-26T22:33:13.732Z,2.70
2018-04-26T22:35:40.774Z,1.97
2018-04-26T22:38:08.649Z,2.70
2018-04-26T22:40:35.692Z,2.40
2018-04-26T22:43:03.565Z,2.20
2018-04-26T22:45:30.612Z,2.03
2018-04-26T22:47:57.658Z,2.03
2018-04-26T22:50:24.709Z,1.83
2018-04-26T22:52:51.753Z,2.17
2018-04-26T22:55:18.802Z,1.80
2018-04-26T22:57:45.794Z,2.10
2018-04-26T23:00:12.797Z,1.90
2018-04-26T23:02:39.792Z,1.80
2018-04-26T23:05:07.151Z,1.80
2018-04-26T23:07:34.155Z,1.73
2018-04-26T23:10:02.125Z,1.70
2018-04-26T23:12:29.071Z,1.70
2018-04-26T23:14:56.117Z,1.70
2018-04-26T23:17:23.161Z,1.60
2018-04-26T23:19:50.215Z,1.40
2018-04-26T23:22:19.627Z,1.30
2018-04-26T23:24:46.673Z,1.60
2018-04-26T23:27:13.711Z,1.70
2018-04-26T23:29:41.681Z,1.60
2018-04-26T23:32:08.735Z,1.20
2018-04-26T23:34:35.781Z,1.00
2018-04-26T23:37:02.825Z,1.40
2018-04-26T23:39:29.880Z,1.50
2018-04-26T23:41:56.924Z,1.00
2018-04-26T23:44:23.971Z,1.40
2018-04-26T23:46:51.031Z,1.20
2018-04-26T23:49:18.070Z,1.50
2018-04-26T23:51:47.842Z,1.40
2018-04-26T23:54:14.835Z,1.30
2018-04-26T23:56:42.903Z,1.47
2018-04-26T23:59:09.955Z,1.20
